sensor_id;sensor_type;location;lat;lon;timestamp;P1;durP1;ratioP1;P2;durP2;ratioP2
41711;SDS011;27399;51.516;13.670;2023-04-15T00:01:24;3.22;;;2.30;;
41711;SDS011;27399;51.516;13.670;2023-04-15T00:03:50;3.08;;;1.90;;
41711;SDS011;27399;51.516;13.670;2023-04-15T00:06:18;2.97;;;2.05;;
41711;SDS011;27399;51.516;13.670;2023-04-15T00:08:45;3.35;;;2.47;;
41711;SDS011;27399;51.516;13.670;2023-04-15T00:11:11;4.25;;;2.45;;
41711;SDS011;27399;51.516;13.670;2023-04-15T00:13:37;4.22;;;2.42;;
41711;SDS011;27399;51.516;13.670;2023-04-15T00:16:03;4.38;;;2.45;;
41711;SDS011;27399;51.516;13.670;2023-04-15T00:18:30;2.47;;;2.00;;
41711;SDS011;27399;51.516;13.670;2023-04-15T00:20:57;3.30;;;2.00;;
41711;SDS011;27399;51.516;13.670;2023-04-15T00:23:23;3.00;;;2.20;;
41711;SDS011;27399;51.516;13.670;2023-04-15T00:25:49;6.28;;;2.83;;
41711;SDS011;27399;51.516;13.670;2023-04-15T00:28:15;3.58;;;2.50;;
41711;SDS011;27399;51.516;13.670;2023-04-15T00:30:41;4.22;;;2.72;;
41711;SDS011;27399;51.516;13.670;2023-04-15T00:33:07;4.43;;;2.80;;
41711;SDS011;27399;51.516;13.670;2023-04-15T00:35:34;3.20;;;2.30;;
41711;SDS011;27399;51.516;13.670;2023-04-15T00:38:01;3.33;;;2.30;;
41711;SDS011;27399;51.516;13.670;2023-04-15T00:40:28;4.30;;;1.90;;
41711;SDS011;27399;51.516;13.670;2023-04-15T00:42:54;5.78;;;2.80;;
41711;SDS011;27399;51.516;13.670;2023-04-15T00:45:20;4.20;;;2.50;;
41711;SDS011;27399;51.516;13.670;2023-04-15T00:47:46;4.35;;;3.28;;
41711;SDS011;27399;51.516;13.670;2023-04-15T00:50:11;3.40;;;2.53;;
41711;SDS011;27399;51.516;13.670;2023-04-15T00:52:37;4.13;;;2.80;;
41711;SDS011;27399;51.516;13.670;2023-04-15T00:55:04;3.78;;;2.42;;
41711;SDS011;27399;51.516;13.670;2023-04-15T00:57:30;4.93;;;3.10;;
41711;SDS011;27399;51.516;13.670;2023-04-15T00:59:57;5.30;;;3.35;;
41711;SDS011;27399;51.516;13.670;2023-04-15T01:02:23;6.53;;;3.60;;
41711;SDS011;27399;51.516;13.670;2023-04-15T01:04:49;5.22;;;2.75;;
41711;SDS011;27399;51.516;13.670;2023-04-15T01:07:14;6.63;;;3.30;;
41711;SDS011;27399;51.516;13.670;2023-04-15T01:09:40;5.18;;;3.30;;
41711;SDS011;27399;51.516;13.670;2023-04-15T01:12:06;4.95;;;3.25;;
41711;SDS011;27399;51.516;13.670;2023-04-15T01:14:36;5.82;;;3.75;;
41711;SDS011;27399;51.516;13.670;2023-04-15T01:17:01;5.32;;;3.65;;
41711;SDS011;27399;51.516;13.670;2023-04-15T01:19:27;4.82;;;3.33;;
41711;SDS011;27399;51.516;13.670;2023-04-15T01:21:53;7.07;;;3.35;;
41711;SDS011;27399;51.516;13.670;2023-04-15T01:24:20;4.82;;;2.92;;
41711;SDS011;27399;51.516;13.670;2023-04-15T01:26:47;5.20;;;3.38;;
41711;SDS011;27399;51.516;13.670;2023-04-15T01:29:13;5.72;;;3.78;;
41711;SDS011;27399;51.516;13.670;2023-04-15T01:31:51;4.70;;;3.40;;
41711;SDS011;27399;51.516;13.670;2023-04-15T01:34:19;6.82;;;3.97;;
41711;SDS011;27399;51.516;13.670;2023-04-15T01:36:45;8.38;;;4.30;;
41711;SDS011;27399;51.516;13.670;2023-04-15T01:39:11;6.72;;;4.15;;
41711;SDS011;27399;51.516;13.670;2023-04-15T01:41:37;5.05;;;3.55;;
41711;SDS011;27399;51.516;13.670;2023-04-15T01:44:04;4.43;;;3.25;;
41711;SDS011;27399;51.516;13.670;2023-04-15T01:46:31;6.90;;;4.28;;
41711;SDS011;27399;51.516;13.670;2023-04-15T01:48:56;5.18;;;3.78;;
41711;SDS011;27399;51.516;13.670;2023-04-15T01:51:22;6.95;;;4.22;;
41711;SDS011;27399;51.516;13.670;2023-04-15T01:53:48;9.07;;;4.80;;
41711;SDS011;27399;51.516;13.670;2023-04-15T01:56:13;7.72;;;4.63;;
41711;SDS011;27399;51.516;13.670;2023-04-15T01:58:39;8.18;;;4.85;;
41711;SDS011;27399;51.516;13.670;2023-04-15T02:01:04;5.65;;;4.03;;
41711;SDS011;27399;51.516;13.670;2023-04-15T02:03:31;6.50;;;4.10;;
41711;SDS011;27399;51.516;13.670;2023-04-15T02:05:57;10.65;;;5.00;;
41711;SDS011;27399;51.516;13.670;2023-04-15T02:08:22;7.07;;;4.20;;
41711;SDS011;27399;51.516;13.670;2023-04-15T02:10:48;7.28;;;4.45;;
41711;SDS011;27399;51.516;13.670;2023-04-15T02:13:13;8.80;;;5.22;;
41711;SDS011;27399;51.516;13.670;2023-04-15T02:15:39;7.75;;;4.63;;
41711;SDS011;27399;51.516;13.670;2023-04-15T02:18:05;6.25;;;4.30;;
41711;SDS011;27399;51.516;13.670;2023-04-15T02:20:31;10.77;;;6.53;;
41711;SDS011;27399;51.516;13.670;2023-04-15T02:22:57;8.63;;;5.63;;
41711;SDS011;27399;51.516;13.670;2023-04-15T02:25:22;9.23;;;5.57;;
41711;SDS011;27399;51.516;13.670;2023-04-15T02:27:48;9.05;;;5.68;;
41711;SDS011;27399;51.516;13.670;2023-04-15T02:30:13;9.85;;;5.80;;
41711;SDS011;27399;51.516;13.670;2023-04-15T02:32:39;9.05;;;6.10;;
41711;SDS011;27399;51.516;13.670;2023-04-15T02:35:07;11.38;;;7.20;;
41711;SDS011;27399;51.516;13.670;2023-04-15T02:37:34;13.02;;;7.07;;
41711;SDS011;27399;51.516;13.670;2023-04-15T02:40:06;11.55;;;6.47;;
41711;SDS011;27399;51.516;13.670;2023-04-15T02:42:34;10.45;;;6.65;;
41711;SDS011;27399;51.516;13.670;2023-04-15T02:44:59;12.80;;;7.53;;
41711;SDS011;27399;51.516;13.670;2023-04-15T02:47:25;15.30;;;8.10;;
41711;SDS011;27399;51.516;13.670;2023-04-15T02:49:53;13.40;;;7.00;;
41711;SDS011;27399;51.516;13.670;2023-04-15T02:52:19;11.25;;;6.43;;
41711;SDS011;27399;51.516;13.670;2023-04-15T02:54:45;9.73;;;6.45;;
41711;SDS011;27399;51.516;13.670;2023-04-15T02:57:10;9.68;;;6.28;;
41711;SDS011;27399;51.516;13.670;2023-04-15T02:59:37;17.77;;;7.70;;
41711;SDS011;27399;51.516;13.670;2023-04-15T03:02:03;20.13;;;9.10;;
41711;SDS011;27399;51.516;13.670;2023-04-15T03:04:31;13.40;;;8.25;;
41711;SDS011;27399;51.516;13.670;2023-04-15T03:06:57;14.77;;;8.98;;
41711;SDS011;27399;51.516;13.670;2023-04-15T03:09:23;15.20;;;8.82;;
41711;SDS011;27399;51.516;13.670;2023-04-15T03:11:48;16.15;;;9.73;;
41711;SDS011;27399;51.516;13.670;2023-04-15T03:14:15;17.65;;;11.00;;
41711;SDS011;27399;51.516;13.670;2023-04-15T03:16:41;18.38;;;10.77;;
41711;SDS011;27399;51.516;13.670;2023-04-15T03:19:06;19.15;;;9.48;;
41711;SDS011;27399;51.516;13.670;2023-04-15T03:21:32;15.23;;;9.32;;
41711;SDS011;27399;51.516;13.670;2023-04-15T03:23:57;20.15;;;11.27;;
41711;SDS011;27399;51.516;13.670;2023-04-15T03:26:29;21.85;;;11.63;;
41711;SDS011;27399;51.516;13.670;2023-04-15T03:28:55;18.15;;;11.35;;
41711;SDS011;27399;51.516;13.670;2023-04-15T03:31:22;19.60;;;11.48;;
41711;SDS011;27399;51.516;13.670;2023-04-15T03:33:48;21.13;;;11.77;;
41711;SDS011;27399;51.516;13.670;2023-04-15T03:36:14;23.63;;;13.05;;
41711;SDS011;27399;51.516;13.670;2023-04-15T03:38:41;26.00;;;13.02;;
41711;SDS011;27399;51.516;13.670;2023-04-15T03:41:07;21.40;;;12.40;;
41711;SDS011;27399;51.516;13.670;2023-04-15T03:43:33;26.77;;;14.93;;
41711;SDS011;27399;51.516;13.670;2023-04-15T03:45:59;27.88;;;14.82;;
41711;SDS011;27399;51.516;13.670;2023-04-15T03:48:25;24.50;;;13.85;;
41711;SDS011;27399;51.516;13.670;2023-04-15T03:50:51;31.33;;;15.45;;
41711;SDS011;27399;51.516;13.670;2023-04-15T03:53:16;26.35;;;14.40;;
41711;SDS011;27399;51.516;13.670;2023-04-15T03:55:42;30.15;;;16.45;;
41711;SDS011;27399;51.516;13.670;2023-04-15T03:58:08;33.53;;;16.70;;
41711;SDS011;27399;51.516;13.670;2023-04-15T04:00:37;26.05;;;15.73;;
41711;SDS011;27399;51.516;13.670;2023-04-15T04:03:03;28.30;;;15.75;;
41711;SDS011;27399;51.516;13.670;2023-04-15T04:05:29;33.53;;;17.35;;
41711;SDS011;27399;51.516;13.670;2023-04-15T04:07:55;30.88;;;16.38;;
41711;SDS011;27399;51.516;13.670;2023-04-15T04:10:20;37.28;;;19.25;;
41711;SDS011;27399;51.516;13.670;2023-04-15T04:12:46;36.50;;;19.73;;
41711;SDS011;27399;51.516;13.670;2023-04-15T04:15:12;42.38;;;21.20;;
41711;SDS011;27399;51.516;13.670;2023-04-15T04:17:38;40.40;;;21.77;;
41711;SDS011;27399;51.516;13.670;2023-04-15T04:20:03;44.50;;;21.65;;
41711;SDS011;27399;51.516;13.670;2023-04-15T04:22:29;34.97;;;19.40;;
41711;SDS011;27399;51.516;13.670;2023-04-15T04:24:55;32.92;;;17.42;;
41711;SDS011;27399;51.516;13.670;2023-04-15T04:27:23;38.08;;;20.10;;
41711;SDS011;27399;51.516;13.670;2023-04-15T04:29:50;40.20;;;21.08;;
41711;SDS011;27399;51.516;13.670;2023-04-15T04:32:16;39.20;;;21.02;;
41711;SDS011;27399;51.516;13.670;2023-04-15T04:34:41;38.85;;;20.63;;
41711;SDS011;27399;51.516;13.670;2023-04-15T04:37:07;36.03;;;19.52;;
41711;SDS011;27399;51.516;13.670;2023-04-15T04:39:33;39.63;;;21.70;;
41711;SDS011;27399;51.516;13.670;2023-04-15T04:41:58;46.75;;;23.30;;
41711;SDS011;27399;51.516;13.670;2023-04-15T04:44:24;43.22;;;22.80;;
41711;SDS011;27399;51.516;13.670;2023-04-15T04:46:49;42.28;;;21.92;;
41711;SDS011;27399;51.516;13.670;2023-04-15T04:49:15;40.47;;;23.23;;
41711;SDS011;27399;51.516;13.670;2023-04-15T04:51:40;40.80;;;23.35;;
41711;SDS011;27399;51.516;13.670;2023-04-15T04:54:06;39.35;;;21.30;;
41711;SDS011;27399;51.516;13.670;2023-04-15T04:56:32;52.67;;;26.83;;
41711;SDS011;27399;51.516;13.670;2023-04-15T04:58:58;59.42;;;26.75;;
41711;SDS011;27399;51.516;13.670;2023-04-15T05:01:24;41.40;;;21.70;;
41711;SDS011;27399;51.516;13.670;2023-04-15T05:03:51;41.95;;;22.48;;
41711;SDS011;27399;51.516;13.670;2023-04-15T05:06:17;47.45;;;24.42;;
41711;SDS011;27399;51.516;13.670;2023-04-15T05:08:43;44.58;;;23.75;;
41711;SDS011;27399;51.516;13.670;2023-04-15T05:11:11;49.03;;;23.73;;
41711;SDS011;27399;51.516;13.670;2023-04-15T05:13:37;48.15;;;24.95;;
41711;SDS011;27399;51.516;13.670;2023-04-15T05:16:06;44.58;;;22.95;;
41711;SDS011;27399;51.516;13.670;2023-04-15T05:18:32;39.28;;;22.10;;
41711;SDS011;27399;51.516;13.670;2023-04-15T05:20:57;39.35;;;21.13;;
41711;SDS011;27399;51.516;13.670;2023-04-15T05:23:23;39.88;;;22.23;;
41711;SDS011;27399;51.516;13.670;2023-04-15T05:25:49;49.75;;;25.17;;
41711;SDS011;27399;51.516;13.670;2023-04-15T05:28:15;64.70;;;28.60;;
41711;SDS011;27399;51.516;13.670;2023-04-15T05:30:41;42.33;;;22.05;;
41711;SDS011;27399;51.516;13.670;2023-04-15T05:33:07;43.38;;;23.15;;
41711;SDS011;27399;51.516;13.670;2023-04-15T05:35:33;44.20;;;23.67;;
41711;SDS011;27399;51.516;13.670;2023-04-15T05:37:58;49.90;;;26.48;;
41711;SDS011;27399;51.516;13.670;2023-04-15T05:40:24;36.10;;;20.70;;
41711;SDS011;27399;51.516;13.670;2023-04-15T05:42:50;41.30;;;22.02;;
41711;SDS011;27399;51.516;13.670;2023-04-15T05:45:16;42.10;;;23.13;;
41711;SDS011;27399;51.516;13.670;2023-04-15T05:47:41;40.58;;;22.63;;
41711;SDS011;27399;51.516;13.670;2023-04-15T05:50:07;36.38;;;20.02;;
41711;SDS011;27399;51.516;13.670;2023-04-15T05:52:33;35.15;;;19.83;;
41711;SDS011;27399;51.516;13.670;2023-04-15T05:54:59;35.72;;;21.25;;
41711;SDS011;27399;51.516;13.670;2023-04-15T05:57:24;36.47;;;20.98;;
41711;SDS011;27399;51.516;13.670;2023-04-15T05:59:50;40.63;;;21.13;;
41711;SDS011;27399;51.516;13.670;2023-04-15T06:02:17;51.40;;;24.35;;
41711;SDS011;27399;51.516;13.670;2023-04-15T06:04:42;46.72;;;24.63;;
41711;SDS011;27399;51.516;13.670;2023-04-15T06:07:08;39.63;;;20.67;;
41711;SDS011;27399;51.516;13.670;2023-04-15T06:09:34;46.30;;;24.80;;
41711;SDS011;27399;51.516;13.670;2023-04-15T06:12:00;38.63;;;22.40;;
41711;SDS011;27399;51.516;13.670;2023-04-15T06:14:26;42.08;;;22.95;;
41711;SDS011;27399;51.516;13.670;2023-04-15T06:16:52;38.35;;;21.00;;
41711;SDS011;27399;51.516;13.670;2023-04-15T06:19:18;38.35;;;22.08;;
41711;SDS011;27399;51.516;13.670;2023-04-15T06:21:44;42.42;;;23.33;;
41711;SDS011;27399;51.516;13.670;2023-04-15T06:24:10;34.92;;;21.25;;
41711;SDS011;27399;51.516;13.670;2023-04-15T06:26:36;41.67;;;23.83;;
41711;SDS011;27399;51.516;13.670;2023-04-15T06:29:02;37.17;;;21.60;;
41711;SDS011;27399;51.516;13.670;2023-04-15T06:31:28;42.97;;;23.50;;
41711;SDS011;27399;51.516;13.670;2023-04-15T06:33:54;48.13;;;24.80;;
41711;SDS011;27399;51.516;13.670;2023-04-15T06:36:20;38.55;;;21.67;;
41711;SDS011;27399;51.516;13.670;2023-04-15T06:38:45;38.60;;;21.55;;
41711;SDS011;27399;51.516;13.670;2023-04-15T06:41:11;35.00;;;20.90;;
41711;SDS011;27399;51.516;13.670;2023-04-15T06:43:37;34.78;;;20.35;;
41711;SDS011;27399;51.516;13.670;2023-04-15T06:46:03;48.75;;;25.50;;
41711;SDS011;27399;51.516;13.670;2023-04-15T06:48:29;40.15;;;22.80;;
41711;SDS011;27399;51.516;13.670;2023-04-15T06:50:55;37.35;;;20.90;;
41711;SDS011;27399;51.516;13.670;2023-04-15T06:53:23;36.63;;;20.60;;
41711;SDS011;27399;51.516;13.670;2023-04-15T06:55:49;43.80;;;25.30;;
41711;SDS011;27399;51.516;13.670;2023-04-15T06:58:15;36.38;;;21.73;;
41711;SDS011;27399;51.516;13.670;2023-04-15T07:00:41;46.72;;;25.58;;
41711;SDS011;27399;51.516;13.670;2023-04-15T07:03:06;36.78;;;21.00;;
41711;SDS011;27399;51.516;13.670;2023-04-15T07:05:35;38.88;;;22.50;;
41711;SDS011;27399;51.516;13.670;2023-04-15T07:08:00;38.60;;;22.20;;
41711;SDS011;27399;51.516;13.670;2023-04-15T07:10:26;53.60;;;26.83;;
41711;SDS011;27399;51.516;13.670;2023-04-15T07:12:51;44.72;;;24.05;;
41711;SDS011;27399;51.516;13.670;2023-04-15T07:15:17;38.58;;;20.58;;
41711;SDS011;27399;51.516;13.670;2023-04-15T07:17:43;48.60;;;24.98;;
41711;SDS011;27399;51.516;13.670;2023-04-15T07:20:08;35.05;;;19.75;;
41711;SDS011;27399;51.516;13.670;2023-04-15T07:22:34;39.83;;;22.58;;
41711;SDS011;27399;51.516;13.670;2023-04-15T07:25:00;31.80;;;19.50;;
41711;SDS011;27399;51.516;13.670;2023-04-15T07:27:25;35.28;;;19.52;;
41711;SDS011;27399;51.516;13.670;2023-04-15T07:29:51;28.50;;;17.45;;
41711;SDS011;27399;51.516;13.670;2023-04-15T07:32:17;31.05;;;17.52;;
41711;SDS011;27399;51.516;13.670;2023-04-15T07:34:43;31.92;;;18.20;;
41711;SDS011;27399;51.516;13.670;2023-04-15T07:37:09;26.23;;;16.27;;
41711;SDS011;27399;51.516;13.670;2023-04-15T07:39:35;38.25;;;21.10;;
41711;SDS011;27399;51.516;13.670;2023-04-15T07:42:01;24.45;;;14.63;;
41711;SDS011;27399;51.516;13.670;2023-04-15T07:44:28;28.58;;;16.67;;
41711;SDS011;27399;51.516;13.670;2023-04-15T07:46:55;26.25;;;15.98;;
41711;SDS011;27399;51.516;13.670;2023-04-15T07:49:20;26.55;;;14.48;;
41711;SDS011;27399;51.516;13.670;2023-04-15T07:51:46;24.90;;;15.85;;
41711;SDS011;27399;51.516;13.670;2023-04-15T07:54:13;33.78;;;20.27;;
41711;SDS011;27399;51.516;13.670;2023-04-15T07:56:41;29.80;;;16.17;;
41711;SDS011;27399;51.516;13.670;2023-04-15T07:59:07;28.63;;;15.15;;
41711;SDS011;27399;51.516;13.670;2023-04-15T08:01:34;28.92;;;17.95;;
41711;SDS011;27399;51.516;13.670;2023-04-15T08:04:00;28.70;;;16.88;;
41711;SDS011;27399;51.516;13.670;2023-04-15T08:06:25;24.15;;;14.52;;
41711;SDS011;27399;51.516;13.670;2023-04-15T08:08:51;20.77;;;12.10;;
41711;SDS011;27399;51.516;13.670;2023-04-15T08:11:18;21.40;;;13.65;;
41711;SDS011;27399;51.516;13.670;2023-04-15T08:13:45;22.45;;;14.85;;
41711;SDS011;27399;51.516;13.670;2023-04-15T08:16:16;20.25;;;13.05;;
41711;SDS011;27399;51.516;13.670;2023-04-15T08:18:46;19.42;;;12.63;;
41711;SDS011;27399;51.516;13.670;2023-04-15T08:21:13;23.30;;;13.05;;
41711;SDS011;27399;51.516;13.670;2023-04-15T08:23:39;27.83;;;14.55;;
41711;SDS011;27399;51.516;13.670;2023-04-15T08:26:05;20.05;;;12.40;;
41711;SDS011;27399;51.516;13.670;2023-04-15T08:28:31;18.92;;;11.90;;
41711;SDS011;27399;51.516;13.670;2023-04-15T08:30:57;16.27;;;11.90;;
41711;SDS011;27399;51.516;13.670;2023-04-15T08:33:22;19.02;;;11.45;;
41711;SDS011;27399;51.516;13.670;2023-04-15T08:35:48;18.90;;;11.98;;
41711;SDS011;27399;51.516;13.670;2023-04-15T08:38:14;24.58;;;14.27;;
41711;SDS011;27399;51.516;13.670;2023-04-15T08:40:40;23.60;;;12.55;;
41711;SDS011;27399;51.516;13.670;2023-04-15T08:43:12;24.55;;;13.25;;
41711;SDS011;27399;51.516;13.670;2023-04-15T08:49:10;18.77;;;11.88;;
41711;SDS011;27399;51.516;13.670;2023-04-15T08:51:39;21.23;;;12.55;;
41711;SDS011;27399;51.516;13.670;2023-04-15T08:54:06;16.83;;;10.98;;
41711;SDS011;27399;51.516;13.670;2023-04-15T08:56:33;21.27;;;13.13;;
41711;SDS011;27399;51.516;13.670;2023-04-15T08:58:59;18.52;;;12.40;;
41711;SDS011;27399;51.516;13.670;2023-04-15T09:01:26;17.50;;;9.85;;
41711;SDS011;27399;51.516;13.670;2023-04-15T09:03:52;9.98;;;6.35;;
41711;SDS011;27399;51.516;13.670;2023-04-15T09:06:19;8.40;;;5.40;;
41711;SDS011;27399;51.516;13.670;2023-04-15T09:08:48;6.55;;;4.68;;
41711;SDS011;27399;51.516;13.670;2023-04-15T09:11:15;6.63;;;4.18;;
41711;SDS011;27399;51.516;13.670;2023-04-15T09:13:44;6.43;;;4.05;;
41711;SDS011;27399;51.516;13.670;2023-04-15T09:16:10;6.82;;;4.13;;
41711;SDS011;27399;51.516;13.670;2023-04-15T09:18:38;4.57;;;2.90;;
41711;SDS011;27399;51.516;13.670;2023-04-15T09:21:07;9.23;;;3.25;;
41711;SDS011;27399;51.516;13.670;2023-04-15T09:24:17;8.10;;;3.17;;
41711;SDS011;27399;51.516;13.670;2023-04-15T09:26:31;3.28;;;2.67;;
41711;SDS011;27399;51.516;13.670;2023-04-15T09:29:10;4.63;;;2.78;;
41711;SDS011;27399;51.516;13.670;2023-04-15T09:31:39;6.35;;;3.40;;
41711;SDS011;27399;51.516;13.670;2023-04-15T09:34:05;3.92;;;2.75;;
41711;SDS011;27399;51.516;13.670;2023-04-15T09:39:14;7.38;;;3.65;;
41711;SDS011;27399;51.516;13.670;2023-04-15T09:41:40;4.70;;;2.58;;
41711;SDS011;27399;51.516;13.670;2023-04-15T09:44:05;5.45;;;2.92;;
41711;SDS011;27399;51.516;13.670;2023-04-15T09:46:41;4.03;;;2.65;;
41711;SDS011;27399;51.516;13.670;2023-04-15T09:49:10;4.68;;;2.88;;
41711;SDS011;27399;51.516;13.670;2023-04-15T09:51:36;4.25;;;2.78;;
41711;SDS011;27399;51.516;13.670;2023-04-15T09:54:02;5.72;;;2.58;;
41711;SDS011;27399;51.516;13.670;2023-04-15T09:56:33;6.20;;;3.80;;
41711;SDS011;27399;51.516;13.670;2023-04-15T09:59:06;4.25;;;2.40;;
41711;SDS011;27399;51.516;13.670;2023-04-15T10:01:32;3.72;;;2.65;;
41711;SDS011;27399;51.516;13.670;2023-04-15T10:03:58;5.38;;;3.28;;
41711;SDS011;27399;51.516;13.670;2023-04-15T10:06:27;15.48;;;3.95;;
41711;SDS011;27399;51.516;13.670;2023-04-15T10:08:54;5.32;;;3.70;;
41711;SDS011;27399;51.516;13.670;2023-04-15T10:11:24;4.85;;;3.60;;
41711;SDS011;27399;51.516;13.670;2023-04-15T10:13:52;5.60;;;3.03;;
41711;SDS011;27399;51.516;13.670;2023-04-15T10:16:19;7.13;;;4.57;;
41711;SDS011;27399;51.516;13.670;2023-04-15T10:18:48;6.30;;;3.30;;
41711;SDS011;27399;51.516;13.670;2023-04-15T10:21:18;3.78;;;2.97;;
41711;SDS011;27399;51.516;13.670;2023-04-15T10:23:47;5.55;;;3.83;;
41711;SDS011;27399;51.516;13.670;2023-04-15T10:26:13;4.07;;;3.08;;
41711;SDS011;27399;51.516;13.670;2023-04-15T10:28:41;13.02;;;2.97;;
41711;SDS011;27399;51.516;13.670;2023-04-15T10:31:07;4.65;;;2.50;;
41711;SDS011;27399;51.516;13.670;2023-04-15T10:33:37;3.80;;;2.67;;
41711;SDS011;27399;51.516;13.670;2023-04-15T10:36:03;3.13;;;2.20;;
41711;SDS011;27399;51.516;13.670;2023-04-15T10:38:32;4.85;;;3.00;;
41711;SDS011;27399;51.516;13.670;2023-04-15T10:41:12;2.75;;;2.20;;
41711;SDS011;27399;51.516;13.670;2023-04-15T10:43:44;4.20;;;1.88;;
41711;SDS011;27399;51.516;13.670;2023-04-15T10:46:17;3.20;;;1.95;;
41711;SDS011;27399;51.516;13.670;2023-04-15T10:49:07;4.43;;;2.08;;
41711;SDS011;27399;51.516;13.670;2023-04-15T10:51:44;2.92;;;1.73;;
41711;SDS011;27399;51.516;13.670;2023-04-15T10:54:16;4.25;;;1.67;;
41711;SDS011;27399;51.516;13.670;2023-04-15T10:56:51;2.03;;;1.55;;
41711;SDS011;27399;51.516;13.670;2023-04-15T10:59:36;2.25;;;1.88;;
41711;SDS011;27399;51.516;13.670;2023-04-15T11:02:04;2.90;;;1.60;;
41711;SDS011;27399;51.516;13.670;2023-04-15T11:07:31;2.88;;;1.50;;
41711;SDS011;27399;51.516;13.670;2023-04-15T11:12:42;4.95;;;1.85;;
41711;SDS011;27399;51.516;13.670;2023-04-15T11:17:50;2.13;;;1.52;;
41711;SDS011;27399;51.516;13.670;2023-04-15T11:20:16;2.30;;;1.35;;
41711;SDS011;27399;51.516;13.670;2023-04-15T11:23:00;2.85;;;1.30;;
41711;SDS011;27399;51.516;13.670;2023-04-15T11:25:30;2.05;;;1.20;;
41711;SDS011;27399;51.516;13.670;2023-04-15T11:27:58;2.25;;;1.30;;
41711;SDS011;27399;51.516;13.670;2023-04-15T11:30:29;2.03;;;1.40;;
41711;SDS011;27399;51.516;13.670;2023-04-15T11:32:58;1.90;;;1.30;;
41711;SDS011;27399;51.516;13.670;2023-04-15T11:35:24;3.60;;;1.50;;
41711;SDS011;27399;51.516;13.670;2023-04-15T11:37:50;3.95;;;2.28;;
41711;SDS011;27399;51.516;13.670;2023-04-15T11:40:26;20.95;;;9.63;;
41711;SDS011;27399;51.516;13.670;2023-04-15T11:43:03;12.23;;;6.30;;
41711;SDS011;27399;51.516;13.670;2023-04-15T11:45:32;10.23;;;6.07;;
41711;SDS011;27399;51.516;13.670;2023-04-15T11:48:07;5.10;;;3.50;;
41711;SDS011;27399;51.516;13.670;2023-04-15T11:50:34;11.82;;;5.55;;
41711;SDS011;27399;51.516;13.670;2023-04-15T11:53:02;7.68;;;4.47;;
41711;SDS011;27399;51.516;13.670;2023-04-15T11:55:29;5.60;;;4.05;;
41711;SDS011;27399;51.516;13.670;2023-04-15T11:58:08;7.55;;;4.90;;
41711;SDS011;27399;51.516;13.670;2023-04-15T12:00:34;11.82;;;6.85;;
41711;SDS011;27399;51.516;13.670;2023-04-15T12:09:14;6.40;;;4.70;;
41711;SDS011;27399;51.516;13.670;2023-04-15T12:11:42;5.28;;;3.47;;
41711;SDS011;27399;51.516;13.670;2023-04-15T12:14:25;6.38;;;4.60;;
41711;SDS011;27399;51.516;13.670;2023-04-15T12:16:56;7.53;;;5.30;;
41711;SDS011;27399;51.516;13.670;2023-04-15T12:22:07;4.93;;;3.65;;
41711;SDS011;27399;51.516;13.670;2023-04-15T12:24:35;7.28;;;5.15;;
41711;SDS011;27399;51.516;13.670;2023-04-15T12:27:02;8.57;;;5.63;;
41711;SDS011;27399;51.516;13.670;2023-04-15T12:29:29;6.38;;;4.07;;
41711;SDS011;27399;51.516;13.670;2023-04-15T12:31:57;4.32;;;3.50;;
41711;SDS011;27399;51.516;13.670;2023-04-15T12:34:31;3.80;;;3.40;;
41711;SDS011;27399;51.516;13.670;2023-04-15T12:37:00;5.93;;;3.58;;
41711;SDS011;27399;51.516;13.670;2023-04-15T12:39:29;6.75;;;3.63;;
41711;SDS011;27399;51.516;13.670;2023-04-15T12:41:57;6.80;;;4.72;;
41711;SDS011;27399;51.516;13.670;2023-04-15T12:44:24;10.95;;;4.40;;
41711;SDS011;27399;51.516;13.670;2023-04-15T12:46:50;7.18;;;4.93;;
41711;SDS011;27399;51.516;13.670;2023-04-15T12:49:20;7.28;;;4.45;;
41711;SDS011;27399;51.516;13.670;2023-04-15T12:51:47;7.88;;;3.42;;
41711;SDS011;27399;51.516;13.670;2023-04-15T12:54:14;5.60;;;3.70;;
41711;SDS011;27399;51.516;13.670;2023-04-15T12:56:44;5.65;;;3.83;;
41711;SDS011;27399;51.516;13.670;2023-04-15T12:59:10;7.80;;;4.88;;
41711;SDS011;27399;51.516;13.670;2023-04-15T13:01:37;7.13;;;4.10;;
41711;SDS011;27399;51.516;13.670;2023-04-15T13:04:03;7.22;;;5.00;;
41711;SDS011;27399;51.516;13.670;2023-04-15T13:06:29;5.20;;;3.72;;
41711;SDS011;27399;51.516;13.670;2023-04-15T13:09:00;6.13;;;4.43;;
41711;SDS011;27399;51.516;13.670;2023-04-15T13:11:27;4.63;;;3.80;;
41711;SDS011;27399;51.516;13.670;2023-04-15T13:14:02;4.63;;;3.50;;
41711;SDS011;27399;51.516;13.670;2023-04-15T13:16:29;6.07;;;3.70;;
41711;SDS011;27399;51.516;13.670;2023-04-15T13:18:56;8.13;;;4.38;;
41711;SDS011;27399;51.516;13.670;2023-04-15T13:21:23;5.18;;;3.85;;
41711;SDS011;27399;51.516;13.670;2023-04-15T13:23:48;4.45;;;3.53;;
41711;SDS011;27399;51.516;13.670;2023-04-15T13:26:15;4.78;;;3.33;;
41711;SDS011;27399;51.516;13.670;2023-04-15T13:28:41;6.05;;;3.30;;
41711;SDS011;27399;51.516;13.670;2023-04-15T13:31:07;6.40;;;3.47;;
41711;SDS011;27399;51.516;13.670;2023-04-15T13:33:33;5.60;;;3.70;;
41711;SDS011;27399;51.516;13.670;2023-04-15T13:35:58;6.32;;;3.60;;
41711;SDS011;27399;51.516;13.670;2023-04-15T13:38:24;5.38;;;3.60;;
41711;SDS011;27399;51.516;13.670;2023-04-15T13:40:50;4.68;;;3.80;;
41711;SDS011;27399;51.516;13.670;2023-04-15T13:43:16;10.50;;;5.70;;
41711;SDS011;27399;51.516;13.670;2023-04-15T13:45:41;6.70;;;4.00;;
41711;SDS011;27399;51.516;13.670;2023-04-15T13:48:07;6.18;;;4.32;;
41711;SDS011;27399;51.516;13.670;2023-04-15T13:50:33;6.63;;;3.95;;
41711;SDS011;27399;51.516;13.670;2023-04-15T13:52:59;7.88;;;4.55;;
41711;SDS011;27399;51.516;13.670;2023-04-15T13:55:25;9.18;;;4.28;;
41711;SDS011;27399;51.516;13.670;2023-04-15T13:57:50;7.22;;;4.75;;
41711;SDS011;27399;51.516;13.670;2023-04-15T14:00:16;8.73;;;4.38;;
41711;SDS011;27399;51.516;13.670;2023-04-15T14:02:42;7.68;;;4.13;;
41711;SDS011;27399;51.516;13.670;2023-04-15T14:05:07;7.72;;;4.28;;
41711;SDS011;27399;51.516;13.670;2023-04-15T14:07:34;6.82;;;4.60;;
41711;SDS011;27399;51.516;13.670;2023-04-15T14:09:59;10.20;;;6.20;;
41711;SDS011;27399;51.516;13.670;2023-04-15T14:12:25;6.55;;;3.85;;
41711;SDS011;27399;51.516;13.670;2023-04-15T14:14:51;4.78;;;3.35;;
41711;SDS011;27399;51.516;13.670;2023-04-15T14:17:17;6.68;;;3.67;;
41711;SDS011;27399;51.516;13.670;2023-04-15T14:19:42;6.63;;;3.67;;
41711;SDS011;27399;51.516;13.670;2023-04-15T14:22:08;9.10;;;3.88;;
41711;SDS011;27399;51.516;13.670;2023-04-15T14:24:33;5.43;;;3.45;;
41711;SDS011;27399;51.516;13.670;2023-04-15T14:26:59;4.45;;;3.55;;
41711;SDS011;27399;51.516;13.670;2023-04-15T14:29:26;6.05;;;3.88;;
41711;SDS011;27399;51.516;13.670;2023-04-15T14:31:52;5.63;;;4.00;;
41711;SDS011;27399;51.516;13.670;2023-04-15T14:34:18;5.95;;;3.33;;
41711;SDS011;27399;51.516;13.670;2023-04-15T14:36:43;7.50;;;4.20;;
41711;SDS011;27399;51.516;13.670;2023-04-15T14:39:09;5.82;;;4.07;;
41711;SDS011;27399;51.516;13.670;2023-04-15T14:41:35;5.32;;;3.67;;
41711;SDS011;27399;51.516;13.670;2023-04-15T14:44:02;5.75;;;3.50;;
41711;SDS011;27399;51.516;13.670;2023-04-15T14:46:27;5.75;;;3.47;;